createdAt,value
2023-03-26T00:01:10.734Z,100.00
2023-03-26T00:03:39.207Z,100.00
2023-03-26T00:06:14.010Z,100.00
2023-03-26T00:08:42.593Z,100.00
2023-03-26T00:11:11.724Z,100.00
2023-03-26T00:13:39.411Z,100.00
2023-03-26T00:16:06.560Z,100.00
2023-03-26T00:18:34.995Z,100.00
2023-03-26T00:21:05.611Z,100.00
2023-03-26T00:23:34.083Z,100.00
2023-03-26T00:26:02.926Z,100.00
2023-03-26T00:28:30.073Z,100.00
2023-03-26T00:31:02.216Z,100.00
2023-03-26T00:33:29.444Z,100.00
2023-03-26T00:35:58.864Z,100.00
2023-03-26T00:38:27.488Z,100.00
2023-03-26T00:40:55.040Z,100.00
2023-03-26T00:43:22.833Z,100.00
2023-03-26T00:45:52.428Z,100.00
2023-03-26T00:48:20.914Z,100.00
2023-03-26T00:50:50.886Z,100.00
2023-03-26T00:53:17.939Z,100.00
2023-03-26T00:55:47.828Z,100.00
2023-03-26T00:58:15.689Z,100.00
2023-03-26T01:00:51.062Z,100.00
2023-03-26T01:03:26.930Z,100.00
2023-03-26T01:06:22.839Z,100.00
2023-03-26T01:08:52.922Z,100.00
2023-03-26T01:11:27.129Z,100.00
2023-03-26T01:14:14.678Z,100.00
2023-03-26T01:16:50.053Z,100.00
2023-03-26T01:19:39.764Z,100.00
2023-03-26T01:22:12.200Z,100.00
2023-03-26T01:24:40.259Z,100.00
2023-03-26T01:27:34.572Z,100.00
2023-03-26T01:30:05.933Z,100.00
2023-03-26T01:32:50.841Z,100.00
2023-03-26T01:35:20.153Z,100.00
2023-03-26T01:38:10.608Z,100.00
2023-03-26T01:40:43.321Z,100.00
2023-03-26T01:43:31.170Z,100.00
2023-03-26T01:46:02.062Z,100.00
2023-03-26T01:48:36.319Z,100.00
2023-03-26T01:51:04.974Z,100.00
2023-03-26T01:53:33.518Z,100.00
2023-03-26T01:56:22.658Z,100.00
2023-03-26T01:59:03.780Z,100.00
2023-03-26T02:01:45.137Z,100.00
2023-03-26T02:04:20.869Z,100.00
2023-03-26T02:07:20.970Z,100.00
2023-03-26T02:09:55.349Z,100.00
2023-03-26T02:12:22.825Z,100.00
2023-03-26T02:14:49.843Z,100.00
2023-03-26T02:17:16.832Z,100.00
2023-03-26T02:19:43.514Z,100.00
2023-03-26T02:22:11.402Z,100.00
2023-03-26T02:24:40.850Z,100.00
2023-03-26T02:27:12.429Z,100.00
2023-03-26T02:29:40.615Z,100.00
2023-03-26T02:32:08.652Z,100.00
2023-03-26T02:34:36.812Z,100.00
2023-03-26T02:37:03.557Z,100.00
2023-03-26T02:39:30.257Z,100.00
2023-03-26T02:41:56.839Z,100.00
2023-03-26T02:44:23.588Z,100.00
2023-03-26T02:46:50.499Z,100.00
2023-03-26T02:49:17.479Z,100.00
2023-03-26T02:51:44.181Z,100.00
2023-03-26T02:54:11.044Z,100.00
2023-03-26T02:56:37.879Z,100.00
2023-03-26T02:59:04.641Z,100.00
2023-03-26T03:01:34.958Z,100.00
2023-03-26T03:04:04.331Z,100.00
2023-03-26T03:06:32.510Z,100.00
2023-03-26T03:08:59.235Z,100.00
2023-03-26T03:11:25.887Z,100.00
2023-03-26T03:13:54.078Z,100.00
2023-03-26T03:16:20.992Z,100.00
2023-03-26T03:18:54.339Z,100.00
2023-03-26T03:21:21.977Z,100.00
2023-03-26T03:23:48.824Z,100.00
2023-03-26T03:26:21.754Z,100.00
2023-03-26T03:28:49.670Z,100.00
2023-03-26T03:31:18.001Z,100.00
2023-03-26T03:33:46.456Z,100.00
2023-03-26T03:36:20.828Z,100.00
2023-03-26T03:38:49.984Z,100.00
2023-03-26T03:41:18.636Z,100.00
2023-03-26T03:43:45.783Z,100.00
2023-03-26T03:46:12.425Z,100.00
2023-03-26T03:48:39.216Z,100.00
2023-03-26T03:51:06.382Z,100.00
2023-03-26T03:53:37.162Z,100.00
2023-03-26T03:56:10.179Z,100.00
2023-03-26T03:58:37.513Z,100.00
2023-03-26T04:01:04.734Z,100.00
2023-03-26T04:03:34.132Z,100.00
2023-03-26T04:06:01.573Z,100.00
2023-03-26T04:08:28.248Z,100.00
2023-03-26T04:10:54.988Z,100.00
2023-03-26T04:13:21.672Z,100.00
2023-03-26T04:15:48.457Z,100.00
2023-03-26T04:18:15.321Z,100.00
2023-03-26T04:20:47.523Z,100.00
2023-03-26T04:23:15.881Z,100.00
2023-03-26T04:25:48.512Z,100.00
2023-03-26T04:28:28.815Z,100.00
2023-03-26T04:30:57.120Z,100.00
2023-03-26T04:33:25.113Z,100.00
2023-03-26T04:35:52.244Z,100.00
2023-03-26T04:38:18.998Z,100.00
2023-03-26T04:40:48.674Z,100.00
2023-03-26T04:43:18.207Z,100.00
2023-03-26T04:45:45.955Z,100.00
2023-03-26T04:48:15.692Z,100.00
2023-03-26T04:50:44.164Z,100.00
2023-03-26T04:53:16.753Z,100.00
2023-03-26T04:56:11.935Z,100.00
2023-03-26T04:58:39.992Z,100.00
2023-03-26T05:01:10.253Z,100.00
2023-03-26T05:03:39.270Z,100.00
2023-03-26T05:06:06.257Z,100.00
2023-03-26T05:08:32.977Z,100.00
2023-03-26T05:10:59.684Z,100.00
2023-03-26T05:13:26.306Z,100.00
2023-03-26T05:15:53.049Z,100.00
2023-03-26T05:18:19.716Z,100.00
2023-03-26T05:20:46.567Z,100.00
2023-03-26T05:23:13.513Z,100.00
2023-03-26T05:25:40.520Z,100.00
2023-03-26T05:28:07.188Z,100.00
2023-03-26T05:30:33.985Z,100.00
2023-03-26T05:33:00.802Z,100.00
2023-03-26T05:35:27.556Z,100.00
2023-03-26T05:37:54.198Z,100.00
2023-03-26T05:40:21.443Z,100.00
2023-03-26T05:42:48.181Z,100.00
2023-03-26T05:45:15.634Z,100.00
2023-03-26T05:47:42.573Z,100.00
2023-03-26T05:50:10.670Z,100.00
2023-03-26T05:52:37.589Z,100.00
2023-03-26T05:55:04.586Z,100.00
2023-03-26T05:57:32.101Z,100.00
2023-03-26T05:59:58.869Z,100.00
2023-03-26T06:02:25.539Z,100.00
2023-03-26T06:04:52.716Z,100.00
2023-03-26T06:07:20.200Z,100.00
2023-03-26T06:09:47.116Z,100.00
2023-03-26T06:12:14.431Z,100.00
2023-03-26T06:14:42.957Z,100.00
2023-03-26T06:17:10.730Z,100.00
2023-03-26T06:19:37.697Z,100.00
2023-03-26T06:22:05.497Z,100.00
2023-03-26T06:24:33.482Z,100.00
2023-03-26T06:27:00.471Z,100.00
2023-03-26T06:29:27.286Z,100.00
2023-03-26T06:31:54.028Z,100.00
2023-03-26T06:34:21.014Z,100.00
2023-03-26T06:36:48.911Z,100.00
2023-03-26T06:39:16.115Z,100.00
2023-03-26T06:41:43.046Z,100.00
2023-03-26T06:44:11.236Z,100.00
2023-03-26T06:46:39.159Z,100.00
2023-03-26T06:49:06.103Z,100.00
2023-03-26T06:51:32.818Z,100.00
2023-03-26T06:53:59.444Z,100.00
2023-03-26T06:56:26.269Z,100.00
2023-03-26T06:58:52.938Z,100.00
2023-03-26T07:01:19.752Z,100.00
2023-03-26T07:03:46.583Z,100.00
2023-03-26T07:06:13.371Z,100.00
2023-03-26T07:08:40.018Z,100.00
2023-03-26T07:11:06.903Z,100.00
2023-03-26T07:13:33.625Z,100.00
2023-03-26T07:16:00.280Z,100.00
2023-03-26T07:18:27.075Z,100.00
2023-03-26T07:20:54.212Z,100.00
2023-03-26T07:23:21.448Z,100.00
2023-03-26T07:25:48.692Z,100.00
2023-03-26T07:28:18.395Z,99.76
2023-03-26T07:31:07.156Z,98.32
2023-03-26T07:33:58.764Z,95.81
2023-03-26T07:36:32.642Z,96.81
2023-03-26T07:39:05.375Z,96.73
2023-03-26T07:41:51.269Z,96.04
2023-03-26T07:44:36.740Z,95.43
2023-03-26T07:47:18.173Z,94.44
2023-03-26T07:49:45.018Z,94.74
2023-03-26T07:52:12.012Z,93.26
2023-03-26T07:54:59.079Z,93.68
2023-03-26T07:57:53.299Z,93.32
2023-03-26T08:00:26.393Z,91.16
2023-03-26T08:03:30.477Z,93.20
2023-03-26T08:06:03.026Z,93.55
2023-03-26T08:09:04.740Z,93.38
2023-03-26T08:11:57.187Z,91.44
2023-03-26T08:14:45.655Z,90.21
2023-03-26T08:17:12.183Z,90.60
2023-03-26T08:19:38.870Z,89.48
2023-03-26T08:22:20.855Z,88.97
2023-03-26T08:25:25.557Z,90.23
2023-03-26T08:28:04.367Z,90.13
2023-03-26T08:30:31.350Z,89.95
2023-03-26T08:33:03.174Z,91.22
2023-03-26T08:35:30.105Z,91.26
2023-03-26T08:37:56.804Z,90.33
2023-03-26T08:41:01.676Z,90.57
2023-03-26T08:44:09.817Z,90.01
2023-03-26T08:47:00.036Z,89.40
2023-03-26T08:49:56.690Z,89.88
2023-03-26T08:52:47.710Z,89.50
2023-03-26T08:55:42.082Z,89.61
2023-03-26T08:58:46.192Z,90.29
2023-03-26T09:01:31.488Z,90.16
2023-03-26T09:04:22.987Z,88.16
2023-03-26T09:07:17.157Z,89.29
2023-03-26T09:10:17.089Z,89.28
2023-03-26T09:12:58.876Z,89.97
2023-03-26T09:15:28.597Z,90.10
2023-03-26T09:18:23.183Z,88.93
2023-03-26T09:21:27.415Z,89.96
2023-03-26T09:24:31.741Z,90.19
2023-03-26T09:27:23.656Z,88.89
2023-03-26T09:29:50.425Z,88.85
2023-03-26T09:32:25.921Z,88.73
2023-03-26T09:35:13.834Z,86.38
2023-03-26T09:37:56.704Z,87.77
2023-03-26T09:40:37.219Z,88.46
2023-03-26T09:43:24.148Z,89.54
2023-03-26T09:46:24.897Z,88.04
2023-03-26T09:49:02.739Z,88.10
2023-03-26T09:51:57.234Z,89.13
2023-03-26T09:54:44.478Z,88.47
2023-03-26T09:57:20.489Z,88.96
2023-03-26T10:00:07.121Z,88.32
2023-03-26T10:03:14.737Z,88.56
2023-03-26T10:06:19.372Z,87.85
2023-03-26T10:09:17.677Z,88.05
2023-03-26T10:12:06.063Z,88.37
2023-03-26T10:15:00.293Z,89.94
2023-03-26T10:17:52.972Z,90.18
2023-03-26T10:20:48.962Z,90.07
2023-03-26T10:23:26.023Z,89.02
2023-03-26T10:26:11.189Z,91.62
2023-03-26T10:29:01.619Z,90.13
2023-03-26T10:31:59.965Z,92.48
2023-03-26T10:34:44.828Z,91.97
2023-03-26T10:37:19.695Z,91.93
2023-03-26T10:40:02.084Z,94.57
2023-03-26T10:42:54.815Z,95.56
2023-03-26T10:45:48.240Z,96.25
2023-03-26T10:48:53.126Z,95.65
2023-03-26T10:51:39.891Z,95.64
2023-03-26T10:54:22.136Z,97.31
2023-03-26T10:56:52.450Z,96.20
2023-03-26T10:59:19.323Z,96.75
2023-03-26T11:02:41.595Z,97.59
2023-03-26T11:05:36.117Z,98.39
2023-03-26T11:08:12.303Z,96.58
2023-03-26T11:11:05.316Z,98.87
2023-03-26T11:13:43.430Z,98.10
2023-03-26T11:16:15.589Z,98.13
2023-03-26T11:18:56.050Z,97.98
2023-03-26T11:21:32.719Z,97.31
2023-03-26T11:24:14.301Z,98.96
2023-03-26T11:26:49.051Z,98.45
2023-03-26T11:29:32.134Z,98.00
2023-03-26T11:32:17.541Z,98.91
2023-03-26T11:34:59.055Z,99.08
2023-03-26T11:37:41.652Z,100.00
2023-03-26T11:40:21.515Z,100.00
2023-03-26T11:42:51.526Z,100.00
2023-03-26T11:45:26.327Z,98.68
2023-03-26T11:47:58.844Z,100.00
2023-03-26T11:50:30.579Z,99.20
2023-03-26T11:53:02.184Z,99.39
2023-03-26T11:55:30.567Z,100.00
2023-03-26T11:58:00.130Z,100.00
2023-03-26T12:00:28.696Z,99.71
2023-03-26T12:03:00.446Z,99.49
2023-03-26T12:05:36.616Z,100.00
2023-03-26T12:08:18.576Z,99.14
2023-03-26T12:10:58.568Z,100.00
2023-03-26T12:13:59.450Z,100.00
2023-03-26T12:16:27.578Z,100.00
2023-03-26T12:19:00.379Z,100.00
2023-03-26T12:21:27.216Z,100.00
2023-03-26T12:23:56.419Z,99.96
2023-03-26T12:26:41.425Z,100.00
2023-03-26T12:29:16.673Z,98.95
2023-03-26T12:32:04.953Z,99.63
2023-03-26T12:34:37.744Z,100.00
2023-03-26T12:37:07.208Z,100.00
2023-03-26T12:40:11.855Z,100.00
2023-03-26T12:44:49.408Z,100.00
2023-03-26T12:45:14.082Z,100.00
2023-03-26T12:48:01.350Z,100.00
2023-03-26T12:51:01.268Z,100.00
2023-03-26T12:53:49.327Z,100.00
2023-03-26T12:56:49.922Z,100.00
2023-03-26T13:00:09.487Z,100.00
2023-03-26T13:02:39.110Z,100.00
2023-03-26T13:05:24.698Z,100.00
2023-03-26T13:08:36.091Z,100.00
2023-03-26T13:11:02.708Z,100.00
2023-03-26T13:13:46.686Z,100.00
2023-03-26T13:16:46.572Z,100.00
2023-03-26T13:19:20.722Z,100.00
2023-03-26T13:21:54.785Z,100.00
2023-03-26T13:24:30.855Z,99.80
2023-03-26T13:27:28.485Z,99.87
2023-03-26T13:29:56.871Z,99.95
2023-03-26T13:32:30.505Z,98.79
2023-03-26T13:35:06.371Z,98.81
2023-03-26T13:37:39.070Z,98.53
2023-03-26T13:40:40.677Z,98.20
2023-03-26T13:43:38.065Z,96.46
2023-03-26T13:46:14.000Z,97.42
2023-03-26T13:48:53.012Z,98.66
2023-03-26T13:51:44.019Z,98.74
2023-03-26T13:54:13.884Z,93.33
2023-03-26T13:56:46.449Z,92.43
2023-03-26T13:59:20.778Z,91.83
2023-03-26T14:01:54.599Z,91.62
2023-03-26T14:04:49.877Z,90.70
2023-03-26T14:07:23.610Z,91.61
2023-03-26T14:10:07.301Z,90.30
2023-03-26T14:12:56.985Z,90.28
2023-03-26T14:15:50.377Z,90.75
2023-03-26T14:19:12.333Z,91.25
2023-03-26T14:22:08.438Z,91.31
2023-03-26T14:24:54.158Z,92.24
2023-03-26T14:27:42.669Z,92.16
2023-03-26T14:30:12.364Z,92.06
2023-03-26T14:33:17.820Z,92.34
2023-03-26T14:35:57.124Z,90.68
2023-03-26T14:38:35.004Z,92.95
2023-03-26T14:41:20.425Z,93.90
2023-03-26T14:44:08.787Z,94.99
2023-03-26T14:46:38.488Z,95.22
2023-03-26T14:49:26.020Z,92.93
2023-03-26T14:52:02.272Z,92.64
2023-03-26T14:54:33.466Z,92.38
2023-03-26T14:57:02.877Z,93.78
2023-03-26T15:00:03.367Z,92.32
2023-03-26T15:02:42.039Z,91.16
2023-03-26T15:05:27.083Z,91.24
2023-03-26T15:08:33.565Z,91.58
2023-03-26T15:11:45.629Z,92.12
2023-03-26T15:14:30.619Z,92.89
2023-03-26T15:17:25.981Z,94.74
2023-03-26T15:20:18.941Z,94.25
2023-03-26T15:23:33.859Z,92.97
2023-03-26T15:26:41.728Z,93.58
2023-03-26T15:29:21.738Z,94.13
2023-03-26T15:32:12.579Z,93.65
2023-03-26T15:35:20.200Z,94.10
2023-03-26T15:38:23.940Z,93.56
2023-03-26T15:41:08.673Z,93.43
2023-03-26T15:46:38.218Z,92.72
2023-03-26T15:49:31.388Z,93.50
2023-03-26T15:52:53.803Z,94.63
2023-03-26T15:55:51.509Z,94.02
2023-03-26T15:58:27.381Z,92.19
2023-03-26T16:01:18.911Z,92.75
2023-03-26T16:04:02.471Z,92.55
2023-03-26T16:06:48.249Z,93.51
2023-03-26T16:10:04.653Z,94.01
2023-03-26T16:13:15.855Z,94.03
2023-03-26T16:15:44.151Z,93.90
2023-03-26T16:18:12.045Z,93.64
2023-03-26T16:21:04.402Z,93.65
2023-03-26T16:23:53.747Z,94.08
2023-03-26T16:26:27.657Z,94.55
2023-03-26T16:28:54.195Z,95.51
2023-03-26T16:31:37.064Z,95.50
2023-03-26T16:34:07.181Z,96.44
2023-03-26T16:36:37.885Z,97.33
2023-03-26T16:39:04.973Z,97.36
2023-03-26T16:42:05.615Z,97.40
2023-03-26T16:44:42.289Z,97.70
2023-03-26T16:47:50.465Z,97.38
2023-03-26T16:50:32.688Z,98.27
2023-03-26T16:53:47.721Z,98.71
2023-03-26T16:56:33.557Z,99.20
2023-03-26T16:59:07.747Z,99.16
2023-03-26T17:01:48.248Z,99.68
2023-03-26T17:04:27.468Z,100.00
2023-03-26T17:07:04.153Z,100.00
2023-03-26T17:09:51.997Z,100.00
2023-03-26T17:12:44.369Z,100.00
2023-03-26T17:15:42.456Z,100.00
2023-03-26T17:18:33.624Z,100.00
2023-03-26T17:21:28.990Z,100.00
2023-03-26T17:24:32.237Z,100.00
2023-03-26T17:27:16.853Z,100.00
2023-03-26T17:30:00.557Z,100.00
2023-03-26T17:33:07.250Z,100.00
2023-03-26T17:35:41.100Z,100.00
2023-03-26T17:38:34.143Z,100.00
2023-03-26T17:41:00.806Z,100.00
2023-03-26T17:43:50.019Z,100.00
2023-03-26T17:46:43.718Z,100.00
2023-03-26T17:49:20.411Z,100.00
2023-03-26T17:52:15.324Z,100.00
2023-03-26T17:54:49.263Z,100.00
2023-03-26T17:57:22.324Z,100.00
2023-03-26T17:59:53.261Z,100.00
2023-03-26T18:02:27.849Z,100.00
2023-03-26T18:04:55.900Z,100.00
2023-03-26T18:07:46.772Z,100.00
2023-03-26T18:10:19.390Z,100.00
2023-03-26T18:12:56.830Z,100.00
2023-03-26T18:15:36.724Z,100.00
2023-03-26T18:18:32.006Z,100.00
2023-03-26T18:21:03.669Z,100.00
2023-03-26T18:23:36.800Z,100.00
2023-03-26T18:26:16.625Z,100.00
2023-03-26T18:29:04.611Z,100.00
2023-03-26T18:31:31.778Z,100.00
2023-03-26T18:34:06.757Z,100.00
2023-03-26T18:36:33.396Z,100.00
2023-03-26T18:39:00.317Z,100.00
2023-03-26T18:41:41.833Z,100.00
2023-03-26T18:44:14.759Z,100.00
2023-03-26T18:46:42.767Z,100.00
2023-03-26T18:49:13.402Z,100.00
2023-03-26T18:51:54.059Z,100.00
2023-03-26T18:54:24.776Z,100.00
2023-03-26T18:56:52.805Z,100.00
2023-03-26T18:59:28.219Z,100.00
2023-03-26T19:01:57.776Z,100.00
2023-03-26T19:04:27.161Z,100.00
2023-03-26T19:06:55.939Z,100.00
2023-03-26T19:09:31.684Z,100.00
2023-03-26T19:12:08.651Z,100.00
2023-03-26T19:14:57.620Z,100.00
2023-03-26T19:17:28.606Z,100.00
2023-03-26T19:19:57.410Z,100.00
2023-03-26T19:22:25.312Z,100.00
2023-03-26T19:24:57.867Z,100.00
2023-03-26T19:27:24.809Z,100.00
2023-03-26T19:29:51.744Z,100.00
2023-03-26T19:32:27.977Z,100.00
2023-03-26T19:34:54.728Z,100.00
2023-03-26T19:37:29.894Z,100.00
2023-03-26T19:40:12.855Z,100.00
2023-03-26T19:42:43.774Z,100.00
2023-03-26T19:45:23.234Z,100.00
2023-03-26T19:48:03.458Z,100.00
2023-03-26T19:50:42.558Z,100.00
2023-03-26T19:53:37.433Z,100.00
2023-03-26T19:56:14.621Z,100.00
2023-03-26T19:58:42.598Z,100.00
2023-03-26T20:01:21.807Z,100.00
2023-03-26T20:03:52.832Z,100.00
2023-03-26T20:06:30.737Z,100.00
2023-03-26T20:09:05.014Z,100.00
2023-03-26T20:11:36.643Z,100.00
2023-03-26T20:14:12.714Z,100.00
2023-03-26T20:16:40.060Z,100.00
2023-03-26T20:19:08.953Z,100.00
2023-03-26T20:21:38.024Z,100.00
2023-03-26T20:24:16.107Z,100.00
2023-03-26T20:26:43.737Z,100.00
2023-03-26T20:29:11.733Z,100.00
2023-03-26T20:31:41.682Z,100.00
2023-03-26T20:34:23.496Z,100.00
2023-03-26T20:36:55.333Z,100.00
2023-03-26T20:39:23.770Z,100.00
2023-03-26T20:41:54.782Z,100.00
2023-03-26T20:44:22.585Z,100.00
2023-03-26T20:46:50.177Z,100.00
2023-03-26T20:49:18.212Z,100.00
2023-03-26T20:51:46.776Z,100.00
2023-03-26T20:54:21.528Z,100.00
2023-03-26T20:56:49.221Z,100.00
2023-03-26T20:59:22.374Z,100.00
2023-03-26T21:01:50.423Z,100.00
2023-03-26T21:04:17.998Z,100.00
2023-03-26T21:06:45.356Z,100.00
2023-03-26T21:09:17.807Z,100.00
2023-03-26T21:12:02.304Z,100.00
2023-03-26T21:14:44.247Z,100.00
2023-03-26T21:17:22.241Z,100.00
2023-03-26T21:19:49.634Z,100.00
2023-03-26T21:22:29.949Z,100.00
2023-03-26T21:25:19.815Z,100.00
2023-03-26T21:28:19.494Z,100.00
2023-03-26T21:31:06.651Z,100.00
2023-03-26T21:33:33.357Z,100.00
2023-03-26T21:36:00.427Z,100.00
2023-03-26T21:38:27.700Z,100.00
2023-03-26T21:40:58.789Z,100.00
2023-03-26T21:43:26.155Z,100.00
2023-03-26T21:45:57.471Z,100.00
2023-03-26T21:48:24.492Z,100.00
2023-03-26T21:50:51.453Z,100.00
2023-03-26T21:53:18.417Z,100.00
2023-03-26T21:56:17.282Z,100.00
2023-03-26T21:58:59.034Z,100.00
2023-03-26T22:01:31.662Z,100.00
2023-03-26T22:04:06.205Z,100.00
2023-03-26T22:06:38.311Z,100.00
2023-03-26T22:09:05.331Z,100.00
2023-03-26T22:11:31.948Z,100.00
2023-03-26T22:13:59.398Z,100.00
2023-03-26T22:16:26.186Z,100.00
2023-03-26T22:18:53.860Z,100.00
2023-03-26T22:21:20.795Z,100.00
2023-03-26T22:23:52.750Z,100.00
2023-03-26T22:26:24.349Z,100.00
2023-03-26T22:28:51.098Z,100.00
2023-03-26T22:31:18.262Z,100.00
2023-03-26T22:33:45.002Z,100.00
2023-03-26T22:36:22.667Z,100.00
2023-03-26T22:38:55.219Z,100.00
2023-03-26T22:41:22.459Z,100.00
2023-03-26T22:43:52.138Z,100.00
2023-03-26T22:46:19.572Z,100.00
2023-03-26T22:48:48.270Z,100.00
2023-03-26T22:51:15.454Z,100.00
2023-03-26T22:53:42.097Z,100.00
2023-03-26T22:56:09.472Z,100.00
2023-03-26T22:58:36.487Z,100.00
2023-03-26T23:01:15.065Z,100.00
2023-03-26T23:03:41.651Z,100.00
2023-03-26T23:06:11.047Z,100.00
2023-03-26T23:08:38.753Z,100.00
2023-03-26T23:11:19.312Z,99.96
2023-03-26T23:13:47.829Z,100.00
2023-03-26T23:16:15.545Z,99.46
2023-03-26T23:18:42.376Z,98.89
2023-03-26T23:21:20.435Z,99.02
2023-03-26T23:23:48.340Z,99.88
2023-03-26T23:26:15.655Z,99.23
2023-03-26T23:28:43.370Z,99.42
2023-03-26T23:31:12.506Z,98.53
2023-03-26T23:33:46.615Z,98.14
2023-03-26T23:36:17.794Z,98.13
2023-03-26T23:38:49.620Z,97.48
2023-03-26T23:41:19.385Z,97.50
2023-03-26T23:43:55.518Z,98.19
2023-03-26T23:46:24.779Z,97.95
2023-03-26T23:48:52.190Z,98.61
2023-03-26T23:51:20.304Z,98.08
2023-03-26T23:53:47.678Z,97.59
2023-03-26T23:56:15.403Z,96.86
2023-03-26T23:58:42.238Z,96.12
